sensor_id;sensor_type;location;lat;lon;timestamp;P1;durP1;ratioP1;P2;durP2;ratioP2
36443;SDS011;24692;45.642;13.806;2022-07-25T00:01:43;7.80;;;6.22;;
36443;SDS011;24692;45.642;13.806;2022-07-25T00:04:09;8.02;;;7.22;;
36443;SDS011;24692;45.642;13.806;2022-07-25T00:06:36;7.90;;;6.25;;
36443;SDS011;24692;45.642;13.806;2022-07-25T00:09:03;7.70;;;6.80;;
36443;SDS011;24692;45.642;13.806;2022-07-25T00:11:28;7.22;;;6.30;;
36443;SDS011;24692;45.642;13.806;2022-07-25T00:13:54;8.77;;;6.10;;
36443;SDS011;24692;45.642;13.806;2022-07-25T00:16:20;8.05;;;6.20;;
36443;SDS011;24692;45.642;13.806;2022-07-25T00:18:46;7.20;;;6.43;;
36443;SDS011;24692;45.642;13.806;2022-07-25T00:21:11;8.00;;;6.60;;
36443;SDS011;24692;45.642;13.806;2022-07-25T00:23:37;8.18;;;6.57;;
36443;SDS011;24692;45.642;13.806;2022-07-25T00:26:03;7.03;;;6.32;;
36443;SDS011;24692;45.642;13.806;2022-07-25T00:28:28;7.28;;;6.57;;
36443;SDS011;24692;45.642;13.806;2022-07-25T00:30:54;8.20;;;6.70;;
36443;SDS011;24692;45.642;13.806;2022-07-25T00:33:20;7.72;;;6.57;;
36443;SDS011;24692;45.642;13.806;2022-07-25T00:35:45;6.82;;;6.22;;
36443;SDS011;24692;45.642;13.806;2022-07-25T00:38:11;7.90;;;6.50;;
36443;SDS011;24692;45.642;13.806;2022-07-25T00:40:37;7.45;;;6.30;;
36443;SDS011;24692;45.642;13.806;2022-07-25T00:43:03;6.75;;;6.13;;
36443;SDS011;24692;45.642;13.806;2022-07-25T00:45:28;7.30;;;6.60;;
36443;SDS011;24692;45.642;13.806;2022-07-25T00:47:54;6.82;;;6.10;;
36443;SDS011;24692;45.642;13.806;2022-07-25T00:50:20;10.32;;;6.63;;
36443;SDS011;24692;45.642;13.806;2022-07-25T00:52:46;7.60;;;6.72;;
36443;SDS011;24692;45.642;13.806;2022-07-25T00:55:12;7.03;;;6.32;;
36443;SDS011;24692;45.642;13.806;2022-07-25T00:57:39;7.93;;;6.57;;
36443;SDS011;24692;45.642;13.806;2022-07-25T01:00:05;7.60;;;6.70;;
36443;SDS011;24692;45.642;13.806;2022-07-25T01:02:34;6.90;;;6.30;;
36443;SDS011;24692;45.642;13.806;2022-07-25T01:05:00;7.45;;;6.75;;
36443;SDS011;24692;45.642;13.806;2022-07-25T01:07:27;7.32;;;6.60;;
36443;SDS011;24692;45.642;13.806;2022-07-25T01:09:53;6.90;;;6.30;;
36443;SDS011;24692;45.642;13.806;2022-07-25T01:12:19;7.25;;;6.43;;
36443;SDS011;24692;45.642;13.806;2022-07-25T01:14:45;7.70;;;6.53;;
36443;SDS011;24692;45.642;13.806;2022-07-25T01:17:11;7.18;;;6.50;;
36443;SDS011;24692;45.642;13.806;2022-07-25T01:19:37;6.63;;;6.03;;
36443;SDS011;24692;45.642;13.806;2022-07-25T01:22:03;7.13;;;6.45;;
36443;SDS011;24692;45.642;13.806;2022-07-25T01:24:29;7.20;;;6.53;;
36443;SDS011;24692;45.642;13.806;2022-07-25T01:26:54;8.77;;;6.50;;
36443;SDS011;24692;45.642;13.806;2022-07-25T01:29:20;6.90;;;6.30;;
36443;SDS011;24692;45.642;13.806;2022-07-25T01:31:46;7.00;;;6.30;;
36443;SDS011;24692;45.642;13.806;2022-07-25T01:34:11;8.05;;;6.50;;
36443;SDS011;24692;45.642;13.806;2022-07-25T01:36:37;7.05;;;6.35;;
36443;SDS011;24692;45.642;13.806;2022-07-25T01:39:03;7.07;;;6.38;;
36443;SDS011;24692;45.642;13.806;2022-07-25T01:41:29;7.20;;;6.50;;
36443;SDS011;24692;45.642;13.806;2022-07-25T01:43:54;11.68;;;6.90;;
36443;SDS011;24692;45.642;13.806;2022-07-25T01:46:20;8.60;;;6.55;;
36443;SDS011;24692;45.642;13.806;2022-07-25T01:48:46;7.85;;;7.05;;
36443;SDS011;24692;45.642;13.806;2022-07-25T01:51:11;6.82;;;6.22;;
36443;SDS011;24692;45.642;13.806;2022-07-25T01:53:37;7.47;;;6.78;;
36443;SDS011;24692;45.642;13.806;2022-07-25T01:56:04;8.07;;;6.80;;
36443;SDS011;24692;45.642;13.806;2022-07-25T01:58:30;7.88;;;6.60;;
36443;SDS011;24692;45.642;13.806;2022-07-25T02:00:56;7.55;;;6.72;;
36443;SDS011;24692;45.642;13.806;2022-07-25T02:03:21;7.95;;;7.18;;
36443;SDS011;24692;45.642;13.806;2022-07-25T02:05:57;8.93;;;6.78;;
36443;SDS011;24692;45.642;13.806;2022-07-25T02:08:25;8.00;;;6.72;;
36443;SDS011;24692;45.642;13.806;2022-07-25T02:10:50;7.63;;;6.68;;
36443;SDS011;24692;45.642;13.806;2022-07-25T02:13:16;7.55;;;6.72;;
36443;SDS011;24692;45.642;13.806;2022-07-25T02:15:42;8.48;;;6.65;;
36443;SDS011;24692;45.642;13.806;2022-07-25T02:18:08;8.10;;;6.57;;
36443;SDS011;24692;45.642;13.806;2022-07-25T02:20:33;7.15;;;6.45;;
36443;SDS011;24692;45.642;13.806;2022-07-25T02:22:59;7.22;;;6.45;;
36443;SDS011;24692;45.642;13.806;2022-07-25T02:25:25;7.57;;;6.75;;
36443;SDS011;24692;45.642;13.806;2022-07-25T02:27:50;8.10;;;7.30;;
36443;SDS011;24692;45.642;13.806;2022-07-25T02:30:16;7.72;;;6.95;;
36443;SDS011;24692;45.642;13.806;2022-07-25T02:32:42;7.60;;;6.80;;
36443;SDS011;24692;45.642;13.806;2022-07-25T02:35:08;7.35;;;6.65;;
36443;SDS011;24692;45.642;13.806;2022-07-25T02:37:33;7.10;;;6.50;;
36443;SDS011;24692;45.642;13.806;2022-07-25T02:39:59;7.72;;;6.90;;
36443;SDS011;24692;45.642;13.806;2022-07-25T02:42:25;7.28;;;6.57;;
36443;SDS011;24692;45.642;13.806;2022-07-25T02:44:50;7.07;;;6.47;;
36443;SDS011;24692;45.642;13.806;2022-07-25T02:47:16;7.00;;;6.38;;
36443;SDS011;24692;45.642;13.806;2022-07-25T02:49:42;9.07;;;6.95;;
36443;SDS011;24692;45.642;13.806;2022-07-25T02:52:07;7.95;;;7.15;;
36443;SDS011;24692;45.642;13.806;2022-07-25T02:54:33;7.43;;;6.70;;
36443;SDS011;24692;45.642;13.806;2022-07-25T02:56:59;7.55;;;6.82;;
36443;SDS011;24692;45.642;13.806;2022-07-25T02:59:24;7.78;;;7.07;;
36443;SDS011;24692;45.642;13.806;2022-07-25T03:01:50;7.32;;;6.63;;
36443;SDS011;24692;45.642;13.806;2022-07-25T03:04:15;6.82;;;5.97;;
36443;SDS011;24692;45.642;13.806;2022-07-25T03:06:41;8.05;;;6.57;;
36443;SDS011;24692;45.642;13.806;2022-07-25T03:09:07;8.77;;;6.57;;
36443;SDS011;24692;45.642;13.806;2022-07-25T03:11:32;8.57;;;6.70;;
36443;SDS011;24692;45.642;13.806;2022-07-25T03:13:58;8.02;;;6.95;;
36443;SDS011;24692;45.642;13.806;2022-07-25T03:16:24;7.13;;;6.43;;
36443;SDS011;24692;45.642;13.806;2022-07-25T03:18:50;7.32;;;6.60;;
36443;SDS011;24692;45.642;13.806;2022-07-25T03:21:17;9.95;;;6.82;;
36443;SDS011;24692;45.642;13.806;2022-07-25T03:23:42;6.65;;;6.05;;
36443;SDS011;24692;45.642;13.806;2022-07-25T03:26:08;9.30;;;6.22;;
36443;SDS011;24692;45.642;13.806;2022-07-25T03:28:34;8.52;;;6.50;;
36443;SDS011;24692;45.642;13.806;2022-07-25T03:31:00;7.43;;;6.68;;
36443;SDS011;24692;45.642;13.806;2022-07-25T03:33:26;6.85;;;6.18;;
36443;SDS011;24692;45.642;13.806;2022-07-25T03:35:51;6.63;;;6.03;;
36443;SDS011;24692;45.642;13.806;2022-07-25T03:38:17;7.10;;;6.18;;
36443;SDS011;24692;45.642;13.806;2022-07-25T03:40:43;9.75;;;6.45;;
36443;SDS011;24692;45.642;13.806;2022-07-25T03:43:09;7.70;;;6.05;;
36443;SDS011;24692;45.642;13.806;2022-07-25T03:45:34;7.70;;;7.00;;
36443;SDS011;24692;45.642;13.806;2022-07-25T03:48:00;7.35;;;6.65;;
36443;SDS011;24692;45.642;13.806;2022-07-25T03:50:26;7.72;;;6.95;;
36443;SDS011;24692;45.642;13.806;2022-07-25T03:52:51;7.03;;;6.32;;
36443;SDS011;24692;45.642;13.806;2022-07-25T03:55:17;7.45;;;6.30;;
36443;SDS011;24692;45.642;13.806;2022-07-25T03:57:43;7.22;;;6.40;;
36443;SDS011;24692;45.642;13.806;2022-07-25T04:00:09;8.85;;;6.15;;
36443;SDS011;24692;45.642;13.806;2022-07-25T04:02:36;7.90;;;7.15;;
36443;SDS011;24692;45.642;13.806;2022-07-25T04:05:03;6.88;;;6.10;;
36443;SDS011;24692;45.642;13.806;2022-07-25T04:07:31;7.15;;;6.45;;
36443;SDS011;24692;45.642;13.806;2022-07-25T04:09:58;8.43;;;6.72;;
36443;SDS011;24692;45.642;13.806;2022-07-25T04:12:23;7.68;;;6.88;;
36443;SDS011;24692;45.642;13.806;2022-07-25T04:14:49;8.95;;;6.68;;
36443;SDS011;24692;45.642;13.806;2022-07-25T04:17:15;7.78;;;6.50;;
36443;SDS011;24692;45.642;13.806;2022-07-25T04:19:40;7.35;;;6.55;;
36443;SDS011;24692;45.642;13.806;2022-07-25T04:22:06;6.65;;;6.03;;
36443;SDS011;24692;45.642;13.806;2022-07-25T04:24:32;9.68;;;6.63;;
36443;SDS011;24692;45.642;13.806;2022-07-25T04:26:57;6.80;;;6.20;;
36443;SDS011;24692;45.642;13.806;2022-07-25T04:29:23;7.57;;;6.40;;
36443;SDS011;24692;45.642;13.806;2022-07-25T04:31:49;7.30;;;6.60;;
36443;SDS011;24692;45.642;13.806;2022-07-25T04:34:14;7.00;;;6.40;;
36443;SDS011;24692;45.642;13.806;2022-07-25T04:36:40;7.20;;;6.50;;
36443;SDS011;24692;45.642;13.806;2022-07-25T04:39:06;7.43;;;6.07;;
36443;SDS011;24692;45.642;13.806;2022-07-25T04:41:31;7.18;;;6.47;;
36443;SDS011;24692;45.642;13.806;2022-07-25T04:43:57;6.85;;;6.25;;
36443;SDS011;24692;45.642;13.806;2022-07-25T04:46:23;7.20;;;6.50;;
36443;SDS011;24692;45.642;13.806;2022-07-25T04:48:49;8.65;;;6.45;;
36443;SDS011;24692;45.642;13.806;2022-07-25T04:51:15;7.00;;;6.40;;
36443;SDS011;24692;45.642;13.806;2022-07-25T04:53:42;7.90;;;6.03;;
36443;SDS011;24692;45.642;13.806;2022-07-25T04:56:08;10.68;;;6.88;;
36443;SDS011;24692;45.642;13.806;2022-07-25T04:58:34;6.68;;;5.90;;
36443;SDS011;24692;45.642;13.806;2022-07-25T05:01:00;6.95;;;6.22;;
36443;SDS011;24692;45.642;13.806;2022-07-25T05:03:26;9.95;;;6.75;;
36443;SDS011;24692;45.642;13.806;2022-07-25T05:05:51;7.20;;;6.20;;
36443;SDS011;24692;45.642;13.806;2022-07-25T05:08:17;8.80;;;6.53;;
36443;SDS011;24692;45.642;13.806;2022-07-25T05:10:43;7.72;;;6.32;;
36443;SDS011;24692;45.642;13.806;2022-07-25T05:13:08;7.85;;;6.22;;
36443;SDS011;24692;45.642;13.806;2022-07-25T05:15:34;7.32;;;6.32;;
36443;SDS011;24692;45.642;13.806;2022-07-25T05:18:00;8.05;;;6.78;;
36443;SDS011;24692;45.642;13.806;2022-07-25T05:20:26;9.57;;;7.10;;
36443;SDS011;24692;45.642;13.806;2022-07-25T05:22:52;6.82;;;6.20;;
36443;SDS011;24692;45.642;13.806;2022-07-25T05:25:18;6.93;;;6.22;;
36443;SDS011;24692;45.642;13.806;2022-07-25T05:27:44;9.82;;;6.90;;
36443;SDS011;24692;45.642;13.806;2022-07-25T05:30:10;9.45;;;6.78;;
36443;SDS011;24692;45.642;13.806;2022-07-25T05:32:37;7.57;;;6.88;;
36443;SDS011;24692;45.642;13.806;2022-07-25T05:35:04;6.90;;;6.30;;
36443;SDS011;24692;45.642;13.806;2022-07-25T05:37:31;7.50;;;6.68;;
36443;SDS011;24692;45.642;13.806;2022-07-25T05:39:58;7.15;;;6.47;;
36443;SDS011;24692;45.642;13.806;2022-07-25T05:42:23;7.30;;;6.53;;
36443;SDS011;24692;45.642;13.806;2022-07-25T05:44:49;6.95;;;5.88;;
36443;SDS011;24692;45.642;13.806;2022-07-25T05:47:15;7.10;;;6.30;;
36443;SDS011;24692;45.642;13.806;2022-07-25T05:49:41;7.32;;;6.63;;
36443;SDS011;24692;45.642;13.806;2022-07-25T05:52:06;9.85;;;6.60;;
36443;SDS011;24692;45.642;13.806;2022-07-25T05:54:33;8.68;;;6.85;;
36443;SDS011;24692;45.642;13.806;2022-07-25T05:56:59;6.60;;;6.00;;
36443;SDS011;24692;45.642;13.806;2022-07-25T05:59:25;7.10;;;6.40;;
36443;SDS011;24692;45.642;13.806;2022-07-25T06:01:51;7.60;;;6.72;;
36443;SDS011;24692;45.642;13.806;2022-07-25T06:04:17;8.13;;;6.65;;
36443;SDS011;24692;45.642;13.806;2022-07-25T06:06:43;6.97;;;6.32;;
36443;SDS011;24692;45.642;13.806;2022-07-25T06:09:15;6.95;;;6.22;;
36443;SDS011;24692;45.642;13.806;2022-07-25T06:11:41;6.80;;;6.15;;
36443;SDS011;24692;45.642;13.806;2022-07-25T06:14:07;7.13;;;6.43;;
36443;SDS011;24692;45.642;13.806;2022-07-25T06:16:33;7.13;;;6.30;;
36443;SDS011;24692;45.642;13.806;2022-07-25T06:18:58;6.72;;;5.97;;
36443;SDS011;24692;45.642;13.806;2022-07-25T06:21:24;6.97;;;6.28;;
36443;SDS011;24692;45.642;13.806;2022-07-25T06:23:50;7.78;;;6.32;;
36443;SDS011;24692;45.642;13.806;2022-07-25T06:26:15;7.97;;;6.05;;
36443;SDS011;24692;45.642;13.806;2022-07-25T06:28:41;6.53;;;5.72;;
36443;SDS011;24692;45.642;13.806;2022-07-25T06:31:06;6.63;;;6.03;;
36443;SDS011;24692;45.642;13.806;2022-07-25T06:33:32;7.07;;;6.05;;
36443;SDS011;24692;45.642;13.806;2022-07-25T06:35:58;7.32;;;6.38;;
36443;SDS011;24692;45.642;13.806;2022-07-25T06:38:24;6.55;;;5.95;;
36443;SDS011;24692;45.642;13.806;2022-07-25T06:40:49;6.85;;;6.25;;
36443;SDS011;24692;45.642;13.806;2022-07-25T06:43:15;6.72;;;5.80;;
36443;SDS011;24692;45.642;13.806;2022-07-25T06:45:40;7.00;;;5.15;;
36443;SDS011;24692;45.642;13.806;2022-07-25T06:48:11;6.38;;;5.78;;
36443;SDS011;24692;45.642;13.806;2022-07-25T06:50:37;6.80;;;6.10;;
36443;SDS011;24692;45.642;13.806;2022-07-25T06:53:03;5.80;;;5.32;;
36443;SDS011;24692;45.642;13.806;2022-07-25T06:55:29;6.07;;;5.28;;
36443;SDS011;24692;45.642;13.806;2022-07-25T06:57:54;8.63;;;6.28;;
36443;SDS011;24692;45.642;13.806;2022-07-25T07:00:20;6.35;;;5.57;;
36443;SDS011;24692;45.642;13.806;2022-07-25T07:02:47;6.43;;;5.47;;
36443;SDS011;24692;45.642;13.806;2022-07-25T07:05:20;7.63;;;5.55;;
36443;SDS011;24692;45.642;13.806;2022-07-25T07:07:46;6.63;;;6.03;;
36443;SDS011;24692;45.642;13.806;2022-07-25T07:10:12;7.50;;;5.60;;
36443;SDS011;24692;45.642;13.806;2022-07-25T07:12:37;5.72;;;5.22;;
36443;SDS011;24692;45.642;13.806;2022-07-25T07:15:03;6.25;;;5.65;;
36443;SDS011;24692;45.642;13.806;2022-07-25T07:17:29;6.00;;;5.40;;
36443;SDS011;24692;45.642;13.806;2022-07-25T07:19:55;6.32;;;5.72;;
36443;SDS011;24692;45.642;13.806;2022-07-25T07:22:21;6.20;;;5.60;;
36443;SDS011;24692;45.642;13.806;2022-07-25T07:24:46;6.43;;;5.68;;
36443;SDS011;24692;45.642;13.806;2022-07-25T07:27:14;7.03;;;5.80;;
36443;SDS011;24692;45.642;13.806;2022-07-25T07:29:40;6.75;;;6.10;;
36443;SDS011;24692;45.642;13.806;2022-07-25T07:32:06;5.70;;;5.20;;
36443;SDS011;24692;45.642;13.806;2022-07-25T07:34:32;5.68;;;5.18;;
36443;SDS011;24692;45.642;13.806;2022-07-25T07:36:57;6.53;;;5.40;;
36443;SDS011;24692;45.642;13.806;2022-07-25T07:39:23;6.60;;;5.97;;
36443;SDS011;24692;45.642;13.806;2022-07-25T07:41:49;5.95;;;5.35;;
36443;SDS011;24692;45.642;13.806;2022-07-25T07:44:15;6.95;;;5.70;;
36443;SDS011;24692;45.642;13.806;2022-07-25T07:46:40;6.85;;;5.75;;
36443;SDS011;24692;45.642;13.806;2022-07-25T07:49:06;6.72;;;5.63;;
36443;SDS011;24692;45.642;13.806;2022-07-25T07:51:32;5.95;;;5.45;;
36443;SDS011;24692;45.642;13.806;2022-07-25T07:53:57;6.63;;;5.93;;
36443;SDS011;24692;45.642;13.806;2022-07-25T07:56:43;5.90;;;5.40;;
36443;SDS011;24692;45.642;13.806;2022-07-25T07:59:09;7.47;;;5.50;;
36443;SDS011;24692;45.642;13.806;2022-07-25T08:01:35;7.50;;;5.30;;
36443;SDS011;24692;45.642;13.806;2022-07-25T08:04:01;6.60;;;5.60;;
36443;SDS011;24692;45.642;13.806;2022-07-25T08:06:27;6.07;;;5.57;;
36443;SDS011;24692;45.642;13.806;2022-07-25T08:08:53;6.20;;;5.28;;
36443;SDS011;24692;45.642;13.806;2022-07-25T08:11:18;5.80;;;5.25;;
36443;SDS011;24692;45.642;13.806;2022-07-25T08:13:44;7.63;;;5.78;;
36443;SDS011;24692;45.642;13.806;2022-07-25T08:16:10;6.35;;;5.72;;
36443;SDS011;24692;45.642;13.806;2022-07-25T08:18:37;5.80;;;5.30;;
36443;SDS011;24692;45.642;13.806;2022-07-25T08:21:04;5.88;;;5.38;;
36443;SDS011;24692;45.642;13.806;2022-07-25T08:23:31;5.70;;;5.18;;
36443;SDS011;24692;45.642;13.806;2022-07-25T08:25:59;7.18;;;5.18;;
36443;SDS011;24692;45.642;13.806;2022-07-25T08:28:25;5.55;;;5.00;;
36443;SDS011;24692;45.642;13.806;2022-07-25T08:30:51;5.50;;;5.00;;
36443;SDS011;24692;45.642;13.806;2022-07-25T08:33:17;6.00;;;5.15;;
36443;SDS011;24692;45.642;13.806;2022-07-25T08:35:47;5.97;;;5.03;;
36443;SDS011;24692;45.642;13.806;2022-07-25T08:38:15;5.75;;;4.93;;
36443;SDS011;24692;45.642;13.806;2022-07-25T08:40:42;8.27;;;5.03;;
36443;SDS011;24692;45.642;13.806;2022-07-25T08:43:09;6.43;;;4.70;;
36443;SDS011;24692;45.642;13.806;2022-07-25T08:45:43;6.93;;;5.28;;
36443;SDS011;24692;45.642;13.806;2022-07-25T08:48:12;6.50;;;5.50;;
36443;SDS011;24692;45.642;13.806;2022-07-25T08:50:40;6.35;;;5.35;;
36443;SDS011;24692;45.642;13.806;2022-07-25T08:53:06;7.05;;;5.32;;
36443;SDS011;24692;45.642;13.806;2022-07-25T08:55:32;6.25;;;5.18;;
36443;SDS011;24692;45.642;13.806;2022-07-25T08:57:58;8.27;;;5.10;;
36443;SDS011;24692;45.642;13.806;2022-07-25T09:00:25;6.13;;;5.53;;
36443;SDS011;24692;45.642;13.806;2022-07-25T09:02:59;6.78;;;5.22;;
36443;SDS011;24692;45.642;13.806;2022-07-25T09:05:27;7.22;;;5.50;;
36443;SDS011;24692;45.642;13.806;2022-07-25T09:07:54;8.75;;;5.88;;
36443;SDS011;24692;45.642;13.806;2022-07-25T09:10:22;7.72;;;5.60;;
36443;SDS011;24692;45.642;13.806;2022-07-25T09:12:56;6.50;;;5.65;;
36443;SDS011;24692;45.642;13.806;2022-07-25T09:17:55;6.45;;;5.20;;
36443;SDS011;24692;45.642;13.806;2022-07-25T09:20:22;6.03;;;5.43;;
36443;SDS011;24692;45.642;13.806;2022-07-25T09:22:48;7.32;;;5.82;;
36443;SDS011;24692;45.642;13.806;2022-07-25T09:25:24;9.65;;;6.10;;
36443;SDS011;24692;45.642;13.806;2022-07-25T09:27:52;6.97;;;6.35;;
36443;SDS011;24692;45.642;13.806;2022-07-25T09:30:18;6.43;;;5.82;;
36443;SDS011;24692;45.642;13.806;2022-07-25T09:32:44;8.15;;;6.25;;
36443;SDS011;24692;45.642;13.806;2022-07-25T09:35:10;7.80;;;6.05;;
36443;SDS011;24692;45.642;13.806;2022-07-25T09:37:37;8.27;;;6.45;;
36443;SDS011;24692;45.642;13.806;2022-07-25T09:40:10;6.95;;;5.80;;
36443;SDS011;24692;45.642;13.806;2022-07-25T09:42:38;6.20;;;5.60;;
36443;SDS011;24692;45.642;13.806;2022-07-25T09:47:36;5.88;;;5.05;;
36443;SDS011;24692;45.642;13.806;2022-07-25T09:50:13;6.88;;;5.60;;
36443;SDS011;24692;45.642;13.806;2022-07-25T09:52:38;6.20;;;5.55;;
36443;SDS011;24692;45.642;13.806;2022-07-25T09:55:04;7.95;;;5.68;;
36443;SDS011;24692;45.642;13.806;2022-07-25T09:57:33;6.60;;;6.00;;
36443;SDS011;24692;45.642;13.806;2022-07-25T09:59:59;6.28;;;5.65;;
36443;SDS011;24692;45.642;13.806;2022-07-25T10:02:28;9.48;;;6.10;;
36443;SDS011;24692;45.642;13.806;2022-07-25T10:05:22;7.30;;;6.03;;
36443;SDS011;24692;45.642;13.806;2022-07-25T10:07:51;7.30;;;6.30;;
36443;SDS011;24692;45.642;13.806;2022-07-25T10:10:29;6.60;;;5.75;;
36443;SDS011;24692;45.642;13.806;2022-07-25T10:12:57;8.13;;;6.40;;
36443;SDS011;24692;45.642;13.806;2022-07-25T10:15:24;6.80;;;6.20;;
36443;SDS011;24692;45.642;13.806;2022-07-25T10:17:50;6.68;;;6.03;;
36443;SDS011;24692;45.642;13.806;2022-07-25T10:20:27;6.47;;;5.88;;
36443;SDS011;24692;45.642;13.806;2022-07-25T10:22:53;6.60;;;5.90;;
36443;SDS011;24692;45.642;13.806;2022-07-25T10:25:19;6.40;;;5.82;;
36443;SDS011;24692;45.642;13.806;2022-07-25T10:30:23;8.32;;;6.70;;
36443;SDS011;24692;45.642;13.806;2022-07-25T10:35:21;6.60;;;6.00;;
36443;SDS011;24692;45.642;13.806;2022-07-25T10:37:49;7.57;;;5.80;;
36443;SDS011;24692;45.642;13.806;2022-07-25T10:40:58;6.40;;;5.80;;
36443;SDS011;24692;45.642;13.806;2022-07-25T10:43:12;7.28;;;5.22;;
36443;SDS011;24692;45.642;13.806;2022-07-25T10:45:43;6.60;;;5.95;;
36443;SDS011;24692;45.642;13.806;2022-07-25T10:48:19;6.05;;;5.55;;
36443;SDS011;24692;45.642;13.806;2022-07-25T10:50:48;6.45;;;5.53;;
36443;SDS011;24692;45.642;13.806;2022-07-25T10:53:38;6.13;;;5.53;;
36443;SDS011;24692;45.642;13.806;2022-07-25T10:56:11;6.05;;;5.50;;
36443;SDS011;24692;45.642;13.806;2022-07-25T10:58:52;6.47;;;5.88;;
36443;SDS011;24692;45.642;13.806;2022-07-25T11:01:31;6.18;;;5.22;;
36443;SDS011;24692;45.642;13.806;2022-07-25T11:04:02;6.05;;;5.20;;
36443;SDS011;24692;45.642;13.806;2022-07-25T11:09:20;6.45;;;5.32;;
36443;SDS011;24692;45.642;13.806;2022-07-25T11:11:49;5.32;;;4.82;;
36443;SDS011;24692;45.642;13.806;2022-07-25T11:16:50;5.82;;;5.00;;
36443;SDS011;24692;45.642;13.806;2022-07-25T11:21:51;5.70;;;5.18;;
36443;SDS011;24692;45.642;13.806;2022-07-25T11:24:18;9.57;;;5.13;;
36443;SDS011;24692;45.642;13.806;2022-07-25T11:26:45;5.60;;;5.10;;
36443;SDS011;24692;45.642;13.806;2022-07-25T11:29:22;6.05;;;5.30;;
36443;SDS011;24692;45.642;13.806;2022-07-25T11:31:52;7.60;;;5.15;;
36443;SDS011;24692;45.642;13.806;2022-07-25T11:34:20;6.03;;;5.00;;
36443;SDS011;24692;45.642;13.806;2022-07-25T11:36:49;6.68;;;5.32;;
36443;SDS011;24692;45.642;13.806;2022-07-25T11:39:16;5.82;;;5.30;;
36443;SDS011;24692;45.642;13.806;2022-07-25T11:41:42;8.68;;;5.90;;
36443;SDS011;24692;45.642;13.806;2022-07-25T11:44:08;6.60;;;5.90;;
36443;SDS011;24692;45.642;13.806;2022-07-25T11:46:40;7.10;;;6.40;;
36443;SDS011;24692;45.642;13.806;2022-07-25T11:49:08;6.53;;;5.90;;
36443;SDS011;24692;45.642;13.806;2022-07-25T11:51:37;6.30;;;5.75;;
36443;SDS011;24692;45.642;13.806;2022-07-25T11:54:06;9.27;;;5.72;;
36443;SDS011;24692;45.642;13.806;2022-07-25T11:56:37;8.43;;;5.93;;
36443;SDS011;24692;45.642;13.806;2022-07-25T11:59:04;6.72;;;6.05;;
36443;SDS011;24692;45.642;13.806;2022-07-25T12:01:34;9.63;;;6.22;;
36443;SDS011;24692;45.642;13.806;2022-07-25T12:04:34;7.28;;;6.57;;
36443;SDS011;24692;45.642;13.806;2022-07-25T12:07:01;7.22;;;6.53;;
36443;SDS011;24692;45.642;13.806;2022-07-25T12:09:29;9.63;;;6.88;;
36443;SDS011;24692;45.642;13.806;2022-07-25T12:12:00;7.40;;;6.70;;
36443;SDS011;24692;45.642;13.806;2022-07-25T12:14:27;7.03;;;6.43;;
36443;SDS011;24692;45.642;13.806;2022-07-25T12:16:53;7.32;;;6.15;;
36443;SDS011;24692;45.642;13.806;2022-07-25T12:19:19;7.80;;;6.28;;
36443;SDS011;24692;45.642;13.806;2022-07-25T12:21:46;7.18;;;6.20;;
36443;SDS011;24692;45.642;13.806;2022-07-25T12:24:11;9.75;;;6.13;;
36443;SDS011;24692;45.642;13.806;2022-07-25T12:26:37;7.97;;;6.10;;
36443;SDS011;24692;45.642;13.806;2022-07-25T12:29:03;8.82;;;6.25;;
36443;SDS011;24692;45.642;13.806;2022-07-25T12:31:28;6.53;;;5.93;;
36443;SDS011;24692;45.642;13.806;2022-07-25T12:33:54;6.88;;;5.78;;
36443;SDS011;24692;45.642;13.806;2022-07-25T12:36:20;8.82;;;6.78;;
36443;SDS011;24692;45.642;13.806;2022-07-25T12:38:45;7.28;;;6.38;;
36443;SDS011;24692;45.642;13.806;2022-07-25T12:41:12;7.72;;;6.15;;
36443;SDS011;24692;45.642;13.806;2022-07-25T12:43:38;7.57;;;6.28;;
36443;SDS011;24692;45.642;13.806;2022-07-25T12:46:04;6.30;;;5.70;;
36443;SDS011;24692;45.642;13.806;2022-07-25T12:48:30;10.88;;;6.25;;
36443;SDS011;24692;45.642;13.806;2022-07-25T12:50:56;8.77;;;6.05;;
36443;SDS011;24692;45.642;13.806;2022-07-25T12:53:21;7.30;;;6.38;;
36443;SDS011;24692;45.642;13.806;2022-07-25T12:55:48;9.32;;;6.10;;
36443;SDS011;24692;45.642;13.806;2022-07-25T12:58:15;6.97;;;6.07;;
36443;SDS011;24692;45.642;13.806;2022-07-25T13:00:41;7.97;;;6.50;;
36443;SDS011;24692;45.642;13.806;2022-07-25T13:03:08;9.45;;;6.18;;
36443;SDS011;24692;45.642;13.806;2022-07-25T13:05:34;6.60;;;6.00;;
36443;SDS011;24692;45.642;13.806;2022-07-25T13:07:59;7.90;;;6.68;;
36443;SDS011;24692;45.642;13.806;2022-07-25T13:10:29;8.35;;;6.82;;
36443;SDS011;24692;45.642;13.806;2022-07-25T13:12:54;10.52;;;6.65;;
36443;SDS011;24692;45.642;13.806;2022-07-25T13:15:20;7.68;;;6.88;;
36443;SDS011;24692;45.642;13.806;2022-07-25T13:17:47;8.15;;;7.05;;
36443;SDS011;24692;45.642;13.806;2022-07-25T13:20:13;8.00;;;6.82;;
36443;SDS011;24692;45.642;13.806;2022-07-25T13:22:39;8.02;;;6.60;;
36443;SDS011;24692;45.642;13.806;2022-07-25T13:25:05;8.63;;;7.10;;
36443;SDS011;24692;45.642;13.806;2022-07-25T13:27:31;8.40;;;6.82;;
36443;SDS011;24692;45.642;13.806;2022-07-25T13:29:57;8.25;;;6.82;;
36443;SDS011;24692;45.642;13.806;2022-07-25T13:32:22;7.65;;;6.90;;
36443;SDS011;24692;45.642;13.806;2022-07-25T13:34:50;8.82;;;6.55;;
36443;SDS011;24692;45.642;13.806;2022-07-25T13:37:15;7.60;;;6.93;;
36443;SDS011;24692;45.642;13.806;2022-07-25T13:39:41;10.20;;;6.60;;
36443;SDS011;24692;45.642;13.806;2022-07-25T13:42:07;10.10;;;6.30;;
36443;SDS011;24692;45.642;13.806;2022-07-25T13:44:32;7.63;;;6.25;;
36443;SDS011;24692;45.642;13.806;2022-07-25T13:46:59;7.30;;;6.10;;
36443;SDS011;24692;45.642;13.806;2022-07-25T13:49:25;7.68;;;6.18;;
36443;SDS011;24692;45.642;13.806;2022-07-25T13:51:51;8.43;;;6.88;;
36443;SDS011;24692;45.642;13.806;2022-07-25T13:54:16;7.15;;;6.45;;
36443;SDS011;24692;45.642;13.806;2022-07-25T13:56:42;7.97;;;6.40;;
36443;SDS011;24692;45.642;13.806;2022-07-25T13:59:08;7.32;;;6.63;;
36443;SDS011;24692;45.642;13.806;2022-07-25T14:01:34;8.00;;;6.60;;
36443;SDS011;24692;45.642;13.806;2022-07-25T14:03:59;6.60;;;6.00;;
36443;SDS011;24692;45.642;13.806;2022-07-25T14:06:25;8.32;;;6.60;;
36443;SDS011;24692;45.642;13.806;2022-07-25T14:08:51;7.82;;;6.53;;
36443;SDS011;24692;45.642;13.806;2022-07-25T14:11:17;9.00;;;6.68;;
36443;SDS011;24692;45.642;13.806;2022-07-25T14:13:43;7.13;;;6.53;;
36443;SDS011;24692;45.642;13.806;2022-07-25T14:16:09;8.15;;;6.55;;
36443;SDS011;24692;45.642;13.806;2022-07-25T14:18:38;8.55;;;6.38;;
36443;SDS011;24692;45.642;13.806;2022-07-25T14:21:04;8.57;;;6.00;;
36443;SDS011;24692;45.642;13.806;2022-07-25T14:23:29;8.00;;;6.35;;
36443;SDS011;24692;45.642;13.806;2022-07-25T14:25:56;6.75;;;6.13;;
36443;SDS011;24692;45.642;13.806;2022-07-25T14:28:22;6.28;;;5.75;;
36443;SDS011;24692;45.642;13.806;2022-07-25T14:30:48;6.78;;;6.07;;
36443;SDS011;24692;45.642;13.806;2022-07-25T14:33:14;8.18;;;5.95;;
36443;SDS011;24692;45.642;13.806;2022-07-25T14:35:39;6.40;;;5.70;;
36443;SDS011;24692;45.642;13.806;2022-07-25T14:38:05;8.25;;;6.40;;
36443;SDS011;24692;45.642;13.806;2022-07-25T14:40:30;7.72;;;6.10;;
36443;SDS011;24692;45.642;13.806;2022-07-25T14:42:56;6.00;;;5.50;;
36443;SDS011;24692;45.642;13.806;2022-07-25T14:45:22;8.80;;;6.03;;
36443;SDS011;24692;45.642;13.806;2022-07-25T14:47:48;6.60;;;6.00;;
36443;SDS011;24692;45.642;13.806;2022-07-25T14:50:13;7.63;;;6.40;;